sensor_id;sensor_type;location;lat;lon;timestamp;temperature;humidity
20911;DHT22;10615;42.702;23.314;2024-01-15T00:00:31;-0.50;90.00
20911;DHT22;10615;42.702;23.314;2024-01-15T00:01:32;-0.50;90.00
20911;DHT22;10615;42.702;23.314;2024-01-15T00:02:33;-0.50;90.00
20911;DHT22;10615;42.702;23.314;2024-01-15T00:03:33;-0.50;90.10
20911;DHT22;10615;42.702;23.314;2024-01-15T00:04:40;-0.50;90.00
20911;DHT22;10615;42.702;23.314;2024-01-15T00:05:41;-0.50;90.00
20911;DHT22;10615;42.702;23.314;2024-01-15T00:06:42;-0.50;90.00
20911;DHT22;10615;42.702;23.314;2024-01-15T00:07:43;-0.50;90.00
20911;DHT22;10615;42.702;23.314;2024-01-15T00:08:43;-0.50;90.10
20911;DHT22;10615;42.702;23.314;2024-01-15T00:09:44;-0.50;90.10
20911;DHT22;10615;42.702;23.314;2024-01-15T00:10:45;-0.50;90.10
20911;DHT22;10615;42.702;23.314;2024-01-15T00:11:46;-0.50;90.10
20911;DHT22;10615;42.702;23.314;2024-01-15T00:12:47;-0.50;90.10
20911;DHT22;10615;42.702;23.314;2024-01-15T00:13:48;-0.50;90.10
20911;DHT22;10615;42.702;23.314;2024-01-15T00:14:48;-0.50;90.10
20911;DHT22;10615;42.702;23.314;2024-01-15T00:15:49;-0.50;90.10
20911;DHT22;10615;42.702;23.314;2024-01-15T00:16:50;-0.50;90.10
20911;DHT22;10615;42.702;23.314;2024-01-15T00:17:51;-0.50;90.10
20911;DHT22;10615;42.702;23.314;2024-01-15T00:18:52;-0.60;90.10
20911;DHT22;10615;42.702;23.314;2024-01-15T00:19:53;-0.60;90.10
20911;DHT22;10615;42.702;23.314;2024-01-15T00:20:54;-0.60;90.20
20911;DHT22;10615;42.702;23.314;2024-01-15T00:21:54;-0.60;90.10
20911;DHT22;10615;42.702;23.314;2024-01-15T00:22:55;-0.60;90.10
20911;DHT22;10615;42.702;23.314;2024-01-15T00:23:56;-0.60;90.20
20911;DHT22;10615;42.702;23.314;2024-01-15T00:24:57;-0.60;90.20
20911;DHT22;10615;42.702;23.314;2024-01-15T00:25:58;-0.60;90.20
20911;DHT22;10615;42.702;23.314;2024-01-15T00:26:58;-0.60;90.20
20911;DHT22;10615;42.702;23.314;2024-01-15T00:27:59;-0.60;90.20
20911;DHT22;10615;42.702;23.314;2024-01-15T00:29:00;-0.60;90.20
20911;DHT22;10615;42.702;23.314;2024-01-15T00:30:01;-0.70;90.20
20911;DHT22;10615;42.702;23.314;2024-01-15T00:31:02;-0.70;90.20
20911;DHT22;10615;42.702;23.314;2024-01-15T00:32:03;-0.70;90.20
20911;DHT22;10615;42.702;23.314;2024-01-15T00:33:04;-0.70;90.20
20911;DHT22;10615;42.702;23.314;2024-01-15T00:34:05;-0.70;90.30
20911;DHT22;10615;42.702;23.314;2024-01-15T00:35:06;-0.70;90.30
20911;DHT22;10615;42.702;23.314;2024-01-15T00:36:07;-0.70;90.30
20911;DHT22;10615;42.702;23.314;2024-01-15T00:37:08;-0.70;90.30
20911;DHT22;10615;42.702;23.314;2024-01-15T00:38:09;-0.70;90.30
20911;DHT22;10615;42.702;23.314;2024-01-15T00:39:09;-0.70;90.30
20911;DHT22;10615;42.702;23.314;2024-01-15T00:40:11;-0.80;90.30
20911;DHT22;10615;42.702;23.314;2024-01-15T00:41:12;-0.80;90.30
20911;DHT22;10615;42.702;23.314;2024-01-15T00:42:13;-0.70;90.30
20911;DHT22;10615;42.702;23.314;2024-01-15T00:43:14;-0.80;90.30
20911;DHT22;10615;42.702;23.314;2024-01-15T00:44:15;-0.70;90.40
20911;DHT22;10615;42.702;23.314;2024-01-15T00:45:16;-0.70;90.40
20911;DHT22;10615;42.702;23.314;2024-01-15T00:46:17;-0.70;90.40
20911;DHT22;10615;42.702;23.314;2024-01-15T00:47:18;-0.80;90.30
20911;DHT22;10615;42.702;23.314;2024-01-15T00:48:19;-0.80;90.30
20911;DHT22;10615;42.702;23.314;2024-01-15T00:49:20;-0.80;90.40
20911;DHT22;10615;42.702;23.314;2024-01-15T00:50:21;-0.80;90.40
20911;DHT22;10615;42.702;23.314;2024-01-15T00:51:21;-0.80;90.40
20911;DHT22;10615;42.702;23.314;2024-01-15T00:52:22;-0.80;90.40
20911;DHT22;10615;42.702;23.314;2024-01-15T00:53:23;-0.70;90.50
20911;DHT22;10615;42.702;23.314;2024-01-15T00:54:24;-0.80;90.50
20911;DHT22;10615;42.702;23.314;2024-01-15T00:55:24;-0.70;90.50
20911;DHT22;10615;42.702;23.314;2024-01-15T00:56:25;-0.70;90.50
20911;DHT22;10615;42.702;23.314;2024-01-15T00:57:26;-0.80;90.40
20911;DHT22;10615;42.702;23.314;2024-01-15T00:58:27;-0.80;90.40
20911;DHT22;10615;42.702;23.314;2024-01-15T00:59:28;-0.80;90.40
20911;DHT22;10615;42.702;23.314;2024-01-15T01:00:28;-0.80;90.40
20911;DHT22;10615;42.702;23.314;2024-01-15T01:01:29;-0.70;90.50
20911;DHT22;10615;42.702;23.314;2024-01-15T01:02:30;-0.70;90.40
20911;DHT22;10615;42.702;23.314;2024-01-15T01:03:31;-0.80;90.40
20911;DHT22;10615;42.702;23.314;2024-01-15T01:04:31;-0.80;90.40
20911;DHT22;10615;42.702;23.314;2024-01-15T01:05:33;-0.80;90.40
20911;DHT22;10615;42.702;23.314;2024-01-15T01:06:34;-0.80;90.40
20911;DHT22;10615;42.702;23.314;2024-01-15T01:07:35;-0.80;90.40
20911;DHT22;10615;42.702;23.314;2024-01-15T01:08:36;-0.80;90.40
20911;DHT22;10615;42.702;23.314;2024-01-15T01:09:37;-0.80;90.40
20911;DHT22;10615;42.702;23.314;2024-01-15T01:10:37;-0.80;90.40
20911;DHT22;10615;42.702;23.314;2024-01-15T01:11:38;-0.80;90.40
20911;DHT22;10615;42.702;23.314;2024-01-15T01:12:39;-0.80;90.50
20911;DHT22;10615;42.702;23.314;2024-01-15T01:13:40;-0.80;90.50
20911;DHT22;10615;42.702;23.314;2024-01-15T01:14:40;-0.80;90.50
20911;DHT22;10615;42.702;23.314;2024-01-15T01:15:41;-0.80;90.60
20911;DHT22;10615;42.702;23.314;2024-01-15T01:16:42;-0.80;90.60
20911;DHT22;10615;42.702;23.314;2024-01-15T01:17:43;-0.80;90.50
20911;DHT22;10615;42.702;23.314;2024-01-15T01:18:43;-0.70;90.50
20911;DHT22;10615;42.702;23.314;2024-01-15T01:19:44;-0.70;90.50
20911;DHT22;10615;42.702;23.314;2024-01-15T01:20:45;-0.80;90.40
20911;DHT22;10615;42.702;23.314;2024-01-15T01:21:46;-0.80;90.40
20911;DHT22;10615;42.702;23.314;2024-01-15T01:22:47;-0.70;90.40
20911;DHT22;10615;42.702;23.314;2024-01-15T01:23:47;-0.80;90.40
20911;DHT22;10615;42.702;23.314;2024-01-15T01:24:48;-0.80;90.30
20911;DHT22;10615;42.702;23.314;2024-01-15T01:25:49;-0.80;90.50
20911;DHT22;10615;42.702;23.314;2024-01-15T01:26:50;-0.80;90.40
20911;DHT22;10615;42.702;23.314;2024-01-15T01:27:51;-0.80;90.50
20911;DHT22;10615;42.702;23.314;2024-01-15T01:28:51;-0.80;90.90
20911;DHT22;10615;42.702;23.314;2024-01-15T01:29:52;-0.80;90.50
20911;DHT22;10615;42.702;23.314;2024-01-15T01:30:53;-0.80;90.50
20911;DHT22;10615;42.702;23.314;2024-01-15T01:31:54;-0.80;90.50
20911;DHT22;10615;42.702;23.314;2024-01-15T01:32:55;-0.80;90.50
20911;DHT22;10615;42.702;23.314;2024-01-15T01:33:55;-0.80;90.70
20911;DHT22;10615;42.702;23.314;2024-01-15T01:34:56;-0.90;90.40
20911;DHT22;10615;42.702;23.314;2024-01-15T01:35:57;-0.90;90.50
20911;DHT22;10615;42.702;23.314;2024-01-15T01:36:57;-0.90;90.50
20911;DHT22;10615;42.702;23.314;2024-01-15T01:37:58;-0.90;90.60
20911;DHT22;10615;42.702;23.314;2024-01-15T01:38:59;-0.90;90.60
20911;DHT22;10615;42.702;23.314;2024-01-15T01:40:00;-0.90;90.60
20911;DHT22;10615;42.702;23.314;2024-01-15T01:41:00;-0.90;90.50
20911;DHT22;10615;42.702;23.314;2024-01-15T01:42:01;-0.90;90.50
20911;DHT22;10615;42.702;23.314;2024-01-15T01:43:04;-0.90;90.50
20911;DHT22;10615;42.702;23.314;2024-01-15T01:44:05;-0.90;90.50
20911;DHT22;10615;42.702;23.314;2024-01-15T01:45:06;-1.00;90.40
20911;DHT22;10615;42.702;23.314;2024-01-15T01:46:07;-1.00;90.40
20911;DHT22;10615;42.702;23.314;2024-01-15T01:47:09;-1.00;90.40
20911;DHT22;10615;42.702;23.314;2024-01-15T01:48:09;-1.00;90.50
20911;DHT22;10615;42.702;23.314;2024-01-15T01:49:10;-1.00;90.40
20911;DHT22;10615;42.702;23.314;2024-01-15T01:50:12;-1.00;90.40
20911;DHT22;10615;42.702;23.314;2024-01-15T01:51:15;-1.00;90.40
20911;DHT22;10615;42.702;23.314;2024-01-15T01:52:16;-1.00;90.50
20911;DHT22;10615;42.702;23.314;2024-01-15T01:53:17;-1.00;90.50
20911;DHT22;10615;42.702;23.314;2024-01-15T01:54:18;-1.00;90.50
20911;DHT22;10615;42.702;23.314;2024-01-15T01:55:19;-1.00;90.50
20911;DHT22;10615;42.702;23.314;2024-01-15T01:56:21;-1.00;90.50
20911;DHT22;10615;42.702;23.314;2024-01-15T01:57:22;-1.00;90.40
20911;DHT22;10615;42.702;23.314;2024-01-15T01:58:23;-1.00;90.40
20911;DHT22;10615;42.702;23.314;2024-01-15T01:59:27;-1.10;90.40
20911;DHT22;10615;42.702;23.314;2024-01-15T02:00:28;-1.00;90.50
20911;DHT22;10615;42.702;23.314;2024-01-15T02:01:30;-1.10;90.50
20911;DHT22;10615;42.702;23.314;2024-01-15T02:02:32;-1.10;90.50
20911;DHT22;10615;42.702;23.314;2024-01-15T02:03:34;-1.10;90.50
20911;DHT22;10615;42.702;23.314;2024-01-15T02:04:36;-1.10;90.50
20911;DHT22;10615;42.702;23.314;2024-01-15T02:05:37;-1.10;90.50
20911;DHT22;10615;42.702;23.314;2024-01-15T02:06:39;-1.10;90.50
20911;DHT22;10615;42.702;23.314;2024-01-15T02:07:41;-1.20;90.50
20911;DHT22;10615;42.702;23.314;2024-01-15T02:08:43;-1.20;90.50
20911;DHT22;10615;42.702;23.314;2024-01-15T02:09:44;-1.10;90.60
20911;DHT22;10615;42.702;23.314;2024-01-15T02:10:45;-1.20;90.60
20911;DHT22;10615;42.702;23.314;2024-01-15T02:11:47;-1.20;90.60
20911;DHT22;10615;42.702;23.314;2024-01-15T02:12:48;-1.20;90.60
20911;DHT22;10615;42.702;23.314;2024-01-15T02:13:49;-1.20;90.70
20911;DHT22;10615;42.702;23.314;2024-01-15T02:14:50;-1.20;90.70
20911;DHT22;10615;42.702;23.314;2024-01-15T02:15:51;-1.20;90.80
20911;DHT22;10615;42.702;23.314;2024-01-15T02:16:52;-1.20;90.80
20911;DHT22;10615;42.702;23.314;2024-01-15T02:17:59;-1.20;90.80
20911;DHT22;10615;42.702;23.314;2024-01-15T02:19:00;-1.20;90.80
20911;DHT22;10615;42.702;23.314;2024-01-15T02:20:01;-1.20;90.80
20911;DHT22;10615;42.702;23.314;2024-01-15T02:21:02;-1.20;90.80
20911;DHT22;10615;42.702;23.314;2024-01-15T02:22:03;-1.20;90.80
20911;DHT22;10615;42.702;23.314;2024-01-15T02:23:08;-1.20;90.80
20911;DHT22;10615;42.702;23.314;2024-01-15T02:24:10;-1.20;90.80
20911;DHT22;10615;42.702;23.314;2024-01-15T02:25:11;-1.10;90.80
20911;DHT22;10615;42.702;23.314;2024-01-15T02:26:12;-1.20;90.80
20911;DHT22;10615;42.702;23.314;2024-01-15T02:27:14;-1.10;90.80
20911;DHT22;10615;42.702;23.314;2024-01-15T02:28:17;-1.10;90.80
20911;DHT22;10615;42.702;23.314;2024-01-15T02:29:17;-1.10;90.70
20911;DHT22;10615;42.702;23.314;2024-01-15T02:30:18;-1.10;90.70
20911;DHT22;10615;42.702;23.314;2024-01-15T02:31:19;-1.10;90.60
20911;DHT22;10615;42.702;23.314;2024-01-15T02:32:20;-1.10;90.60
20911;DHT22;10615;42.702;23.314;2024-01-15T02:33:20;-1.10;90.50
20911;DHT22;10615;42.702;23.314;2024-01-15T02:34:21;-1.20;90.50
20911;DHT22;10615;42.702;23.314;2024-01-15T02:35:22;-1.30;90.50
20911;DHT22;10615;42.702;23.314;2024-01-15T02:36:23;-1.30;90.60
20911;DHT22;10615;42.702;23.314;2024-01-15T02:37:23;-1.30;90.60
20911;DHT22;10615;42.702;23.314;2024-01-15T02:38:24;-1.40;90.70
20911;DHT22;10615;42.702;23.314;2024-01-15T02:39:25;-1.40;90.80
20911;DHT22;10615;42.702;23.314;2024-01-15T02:40:26;-1.40;90.90
20911;DHT22;10615;42.702;23.314;2024-01-15T02:41:26;-1.30;91.00
20911;DHT22;10615;42.702;23.314;2024-01-15T02:42:27;-1.30;91.10
20911;DHT22;10615;42.702;23.314;2024-01-15T02:43:28;-1.30;91.00
20911;DHT22;10615;42.702;23.314;2024-01-15T02:44:29;-1.30;91.00
20911;DHT22;10615;42.702;23.314;2024-01-15T02:45:30;-1.30;91.00
20911;DHT22;10615;42.702;23.314;2024-01-15T02:46:30;-1.30;91.00
20911;DHT22;10615;42.702;23.314;2024-01-15T02:47:31;-1.30;91.00
20911;DHT22;10615;42.702;23.314;2024-01-15T02:48:32;-1.20;91.40
20911;DHT22;10615;42.702;23.314;2024-01-15T02:49:35;-1.30;90.90
20911;DHT22;10615;42.702;23.314;2024-01-15T02:50:35;-1.20;90.90
20911;DHT22;10615;42.702;23.314;2024-01-15T02:51:37;-1.20;90.90
20911;DHT22;10615;42.702;23.314;2024-01-15T02:52:37;-1.20;90.90
20911;DHT22;10615;42.702;23.314;2024-01-15T02:53:38;-1.20;90.90
20911;DHT22;10615;42.702;23.314;2024-01-15T02:54:39;-1.20;90.80
20911;DHT22;10615;42.702;23.314;2024-01-15T02:55:40;-1.20;90.80
20911;DHT22;10615;42.702;23.314;2024-01-15T02:56:41;-1.20;90.80
20911;DHT22;10615;42.702;23.314;2024-01-15T02:57:41;-1.20;90.80
20911;DHT22;10615;42.702;23.314;2024-01-15T02:58:42;-1.20;90.80
20911;DHT22;10615;42.702;23.314;2024-01-15T02:59:43;-1.20;90.80
20911;DHT22;10615;42.702;23.314;2024-01-15T03:00:44;-1.20;90.70
20911;DHT22;10615;42.702;23.314;2024-01-15T03:01:44;-1.20;90.70
20911;DHT22;10615;42.702;23.314;2024-01-15T03:02:45;-1.20;90.80
20911;DHT22;10615;42.702;23.314;2024-01-15T03:03:46;-1.20;90.80
20911;DHT22;10615;42.702;23.314;2024-01-15T03:04:47;-1.20;90.80
20911;DHT22;10615;42.702;23.314;2024-01-15T03:05:47;-1.20;90.80
20911;DHT22;10615;42.702;23.314;2024-01-15T03:06:49;-1.30;90.70
20911;DHT22;10615;42.702;23.314;2024-01-15T03:07:50;-1.30;90.80
20911;DHT22;10615;42.702;23.314;2024-01-15T03:08:51;-1.30;90.70
20911;DHT22;10615;42.702;23.314;2024-01-15T03:09:52;-1.30;90.70
20911;DHT22;10615;42.702;23.314;2024-01-15T03:10:52;-1.30;90.70
20911;DHT22;10615;42.702;23.314;2024-01-15T03:11:53;-1.40;90.60
20911;DHT22;10615;42.702;23.314;2024-01-15T03:12:54;-1.40;90.60
20911;DHT22;10615;42.702;23.314;2024-01-15T03:13:54;-1.40;90.60
20911;DHT22;10615;42.702;23.314;2024-01-15T03:14:55;-1.40;90.60
20911;DHT22;10615;42.702;23.314;2024-01-15T03:15:56;-1.50;90.60
20911;DHT22;10615;42.702;23.314;2024-01-15T03:16:57;-1.50;90.60
20911;DHT22;10615;42.702;23.314;2024-01-15T03:17:57;-1.50;90.60
20911;DHT22;10615;42.702;23.314;2024-01-15T03:18:58;-1.50;90.50
20911;DHT22;10615;42.702;23.314;2024-01-15T03:19:59;-1.50;90.50
20911;DHT22;10615;42.702;23.314;2024-01-15T03:21:00;-1.50;90.60
20911;DHT22;10615;42.702;23.314;2024-01-15T03:22:02;-1.50;90.60
20911;DHT22;10615;42.702;23.314;2024-01-15T03:23:04;-1.60;90.60
20911;DHT22;10615;42.702;23.314;2024-01-15T03:24:04;-1.60;90.60
20911;DHT22;10615;42.702;23.314;2024-01-15T03:25:06;-1.60;90.60
20911;DHT22;10615;42.702;23.314;2024-01-15T03:26:07;-1.60;90.60
20911;DHT22;10615;42.702;23.314;2024-01-15T03:27:08;-1.60;90.60
20911;DHT22;10615;42.702;23.314;2024-01-15T03:28:09;-1.60;90.60
20911;DHT22;10615;42.702;23.314;2024-01-15T03:29:09;-1.60;90.60
20911;DHT22;10615;42.702;23.314;2024-01-15T03:30:11;-1.60;90.60
20911;DHT22;10615;42.702;23.314;2024-01-15T03:31:12;-1.60;90.60
20911;DHT22;10615;42.702;23.314;2024-01-15T03:32:12;-1.60;90.60
20911;DHT22;10615;42.702;23.314;2024-01-15T03:33:13;-1.60;90.60
20911;DHT22;10615;42.702;23.314;2024-01-15T03:34:14;-1.70;90.60
20911;DHT22;10615;42.702;23.314;2024-01-15T03:35:15;-1.70;90.70
20911;DHT22;10615;42.702;23.314;2024-01-15T03:36:16;-1.70;90.70
20911;DHT22;10615;42.702;23.314;2024-01-15T03:37:16;-1.60;90.80
20911;DHT22;10615;42.702;23.314;2024-01-15T03:38:17;-1.60;90.70
20911;DHT22;10615;42.702;23.314;2024-01-15T03:39:18;-1.60;90.70
20911;DHT22;10615;42.702;23.314;2024-01-15T03:40:19;-1.60;90.60
20911;DHT22;10615;42.702;23.314;2024-01-15T03:41:19;-1.60;90.50
20911;DHT22;10615;42.702;23.314;2024-01-15T03:42:20;-1.60;90.60
20911;DHT22;10615;42.702;23.314;2024-01-15T03:43:21;-1.60;90.60
20911;DHT22;10615;42.702;23.314;2024-01-15T03:44:22;-1.60;90.60
20911;DHT22;10615;42.702;23.314;2024-01-15T03:45:22;-1.60;90.60
20911;DHT22;10615;42.702;23.314;2024-01-15T03:46:23;-1.60;90.60
20911;DHT22;10615;42.702;23.314;2024-01-15T03:47:24;-1.60;90.60
20911;DHT22;10615;42.702;23.314;2024-01-15T03:48:25;-1.50;90.60
20911;DHT22;10615;42.702;23.314;2024-01-15T03:49:25;-1.50;90.60
20911;DHT22;10615;42.702;23.314;2024-01-15T03:50:26;-1.50;90.50
20911;DHT22;10615;42.702;23.314;2024-01-15T03:51:27;-1.50;90.50
20911;DHT22;10615;42.702;23.314;2024-01-15T03:52:28;-1.40;90.50
20911;DHT22;10615;42.702;23.314;2024-01-15T03:53:28;-1.50;90.40
20911;DHT22;10615;42.702;23.314;2024-01-15T03:54:29;-1.40;90.50
20911;DHT22;10615;42.702;23.314;2024-01-15T03:55:30;-1.40;90.40
20911;DHT22;10615;42.702;23.314;2024-01-15T03:56:31;-1.40;90.50
20911;DHT22;10615;42.702;23.314;2024-01-15T03:57:31;-1.40;90.40
20911;DHT22;10615;42.702;23.314;2024-01-15T03:58:32;-1.40;90.40
20911;DHT22;10615;42.702;23.314;2024-01-15T03:59:33;-1.40;90.40
20911;DHT22;10615;42.702;23.314;2024-01-15T04:00:34;-1.40;90.40
20911;DHT22;10615;42.702;23.314;2024-01-15T04:01:35;-1.40;90.40
20911;DHT22;10615;42.702;23.314;2024-01-15T04:02:35;-1.40;90.40
20911;DHT22;10615;42.702;23.314;2024-01-15T04:03:36;-1.40;90.40
20911;DHT22;10615;42.702;23.314;2024-01-15T04:04:41;-1.40;90.40
20911;DHT22;10615;42.702;23.314;2024-01-15T04:05:42;-1.40;90.40
20911;DHT22;10615;42.702;23.314;2024-01-15T04:06:42;-1.30;90.40
20911;DHT22;10615;42.702;23.314;2024-01-15T04:07:43;-1.30;90.40
20911;DHT22;10615;42.702;23.314;2024-01-15T04:08:44;-1.30;90.30
20911;DHT22;10615;42.702;23.314;2024-01-15T04:09:45;-1.30;90.30
20911;DHT22;10615;42.702;23.314;2024-01-15T04:10:45;-1.30;90.30
20911;DHT22;10615;42.702;23.314;2024-01-15T04:11:46;-1.30;90.20
20911;DHT22;10615;42.702;23.314;2024-01-15T04:12:47;-1.30;90.20
20911;DHT22;10615;42.702;23.314;2024-01-15T04:13:48;-1.30;90.20
20911;DHT22;10615;42.702;23.314;2024-01-15T04:14:48;-1.30;90.20
20911;DHT22;10615;42.702;23.314;2024-01-15T04:15:49;-1.30;90.20
20911;DHT22;10615;42.702;23.314;2024-01-15T04:16:50;-1.30;90.10
20911;DHT22;10615;42.702;23.314;2024-01-15T04:17:52;-1.30;90.10
20911;DHT22;10615;42.702;23.314;2024-01-15T04:18:52;-1.30;90.10
20911;DHT22;10615;42.702;23.314;2024-01-15T04:19:53;-1.30;90.00
20911;DHT22;10615;42.702;23.314;2024-01-15T04:20:54;-1.30;90.00
20911;DHT22;10615;42.702;23.314;2024-01-15T04:21:55;-1.30;90.00
20911;DHT22;10615;42.702;23.314;2024-01-15T04:22:55;-1.30;90.00
20911;DHT22;10615;42.702;23.314;2024-01-15T04:23:56;-1.30;90.00
20911;DHT22;10615;42.702;23.314;2024-01-15T04:24:57;-1.30;90.00
20911;DHT22;10615;42.702;23.314;2024-01-15T04:25:58;-1.30;90.00
20911;DHT22;10615;42.702;23.314;2024-01-15T04:26:58;-1.30;90.10
20911;DHT22;10615;42.702;23.314;2024-01-15T04:27:59;-1.20;90.10
20911;DHT22;10615;42.702;23.314;2024-01-15T04:29:00;-1.30;90.10
20911;DHT22;10615;42.702;23.314;2024-01-15T04:30:00;-1.30;90.10
20911;DHT22;10615;42.702;23.314;2024-01-15T04:31:01;-1.30;90.00
20911;DHT22;10615;42.702;23.314;2024-01-15T04:32:02;-1.30;90.10
20911;DHT22;10615;42.702;23.314;2024-01-15T04:33:03;-1.30;90.10
20911;DHT22;10615;42.702;23.314;2024-01-15T04:34:04;-1.30;90.10
20911;DHT22;10615;42.702;23.314;2024-01-15T04:35:05;-1.20;90.50
20911;DHT22;10615;42.702;23.314;2024-01-15T04:36:06;-1.20;90.10
20911;DHT22;10615;42.702;23.314;2024-01-15T04:37:06;-1.20;90.00
20911;DHT22;10615;42.702;23.314;2024-01-15T04:38:07;-1.20;90.00
20911;DHT22;10615;42.702;23.314;2024-01-15T04:39:08;-1.20;89.90
20911;DHT22;10615;42.702;23.314;2024-01-15T04:40:09;-1.20;90.00
20911;DHT22;10615;42.702;23.314;2024-01-15T04:41:14;-1.30;89.90
20911;DHT22;10615;42.702;23.314;2024-01-15T04:42:16;-1.30;90.00
20911;DHT22;10615;42.702;23.314;2024-01-15T04:43:17;-1.30;90.00
20911;DHT22;10615;42.702;23.314;2024-01-15T04:44:18;-1.20;90.00
20911;DHT22;10615;42.702;23.314;2024-01-15T04:45:19;-1.20;90.00
20911;DHT22;10615;42.702;23.314;2024-01-15T04:46:20;-1.20;90.00
20911;DHT22;10615;42.702;23.314;2024-01-15T04:47:20;-1.20;90.00
20911;DHT22;10615;42.702;23.314;2024-01-15T04:48:21;-1.20;90.00
20911;DHT22;10615;42.702;23.314;2024-01-15T04:49:23;-1.30;90.30
20911;DHT22;10615;42.702;23.314;2024-01-15T04:50:26;-1.30;90.00
20911;DHT22;10615;42.702;23.314;2024-01-15T04:51:27;-1.30;90.00
20911;DHT22;10615;42.702;23.314;2024-01-15T04:52:28;-1.30;90.10
20911;DHT22;10615;42.702;23.314;2024-01-15T04:53:29;-1.30;90.10
20911;DHT22;10615;42.702;23.314;2024-01-15T04:54:29;-1.30;90.10
20911;DHT22;10615;42.702;23.314;2024-01-15T04:55:32;-1.30;90.00
20911;DHT22;10615;42.702;23.314;2024-01-15T04:56:33;-1.30;90.00
20911;DHT22;10615;42.702;23.314;2024-01-15T04:57:33;-1.30;90.00
20911;DHT22;10615;42.702;23.314;2024-01-15T04:58:34;-1.30;90.10
20911;DHT22;10615;42.702;23.314;2024-01-15T04:59:35;-1.30;90.10
20911;DHT22;10615;42.702;23.314;2024-01-15T05:00:36;-1.30;90.10
20911;DHT22;10615;42.702;23.314;2024-01-15T05:01:36;-1.30;90.10
20911;DHT22;10615;42.702;23.314;2024-01-15T05:02:37;-1.30;90.10
20911;DHT22;10615;42.702;23.314;2024-01-15T05:03:38;-1.20;90.20
20911;DHT22;10615;42.702;23.314;2024-01-15T05:04:39;-1.20;90.20
20911;DHT22;10615;42.702;23.314;2024-01-15T05:05:40;-1.20;90.20
20911;DHT22;10615;42.702;23.314;2024-01-15T05:06:41;-1.20;90.20
20911;DHT22;10615;42.702;23.314;2024-01-15T05:07:41;-1.10;90.30
20911;DHT22;10615;42.702;23.314;2024-01-15T05:08:42;-1.10;90.30
20911;DHT22;10615;42.702;23.314;2024-01-15T05:09:43;-1.10;90.30
20911;DHT22;10615;42.702;23.314;2024-01-15T05:10:44;-1.10;90.30
20911;DHT22;10615;42.702;23.314;2024-01-15T05:11:45;-1.10;90.30
20911;DHT22;10615;42.702;23.314;2024-01-15T05:12:46;-1.00;90.40
20911;DHT22;10615;42.702;23.314;2024-01-15T05:13:46;-1.00;90.40
20911;DHT22;10615;42.702;23.314;2024-01-15T05:14:47;-1.10;90.40
20911;DHT22;10615;42.702;23.314;2024-01-15T05:15:48;-1.10;90.30
20911;DHT22;10615;42.702;23.314;2024-01-15T05:16:49;-1.10;90.30
20911;DHT22;10615;42.702;23.314;2024-01-15T05:17:50;-1.20;90.30
20911;DHT22;10615;42.702;23.314;2024-01-15T05:18:50;-1.20;90.20
20911;DHT22;10615;42.702;23.314;2024-01-15T05:19:51;-1.20;90.20
20911;DHT22;10615;42.702;23.314;2024-01-15T05:20:52;-1.20;90.20
20911;DHT22;10615;42.702;23.314;2024-01-15T05:21:53;-1.20;90.20
20911;DHT22;10615;42.702;23.314;2024-01-15T05:22:53;-1.20;90.30
20911;DHT22;10615;42.702;23.314;2024-01-15T05:23:54;-1.30;90.20
20911;DHT22;10615;42.702;23.314;2024-01-15T05:24:55;-1.20;90.30
20911;DHT22;10615;42.702;23.314;2024-01-15T05:25:55;-1.10;90.40
20911;DHT22;10615;42.702;23.314;2024-01-15T05:26:56;-1.00;90.40
20911;DHT22;10615;42.702;23.314;2024-01-15T05:27:57;-1.00;90.40
20911;DHT22;10615;42.702;23.314;2024-01-15T05:28:58;-1.00;90.40
20911;DHT22;10615;42.702;23.314;2024-01-15T05:29:58;-0.90;90.30
20911;DHT22;10615;42.702;23.314;2024-01-15T05:31:00;-0.80;90.40
20911;DHT22;10615;42.702;23.314;2024-01-15T05:32:00;-0.70;90.30
20911;DHT22;10615;42.702;23.314;2024-01-15T05:33:01;-0.70;90.20
20911;DHT22;10615;42.702;23.314;2024-01-15T05:34:03;-0.70;90.10
20911;DHT22;10615;42.702;23.314;2024-01-15T05:35:04;-0.60;90.10
20911;DHT22;10615;42.702;23.314;2024-01-15T05:36:05;-0.60;89.90
20911;DHT22;10615;42.702;23.314;2024-01-15T05:37:06;-0.60;89.70
20911;DHT22;10615;42.702;23.314;2024-01-15T05:38:07;-0.60;89.40
20911;DHT22;10615;42.702;23.314;2024-01-15T05:39:08;-0.70;89.20
20911;DHT22;10615;42.702;23.314;2024-01-15T05:40:09;-0.60;89.30
20911;DHT22;10615;42.702;23.314;2024-01-15T05:41:10;-0.60;89.40
20911;DHT22;10615;42.702;23.314;2024-01-15T05:42:11;-0.60;89.50
20911;DHT22;10615;42.702;23.314;2024-01-15T05:43:11;-0.50;89.50
20911;DHT22;10615;42.702;23.314;2024-01-15T05:44:12;-0.50;89.50
20911;DHT22;10615;42.702;23.314;2024-01-15T05:45:13;-0.40;89.40
20911;DHT22;10615;42.702;23.314;2024-01-15T05:46:15;-0.50;89.20
20911;DHT22;10615;42.702;23.314;2024-01-15T05:47:16;-0.50;89.10
20911;DHT22;10615;42.702;23.314;2024-01-15T05:48:17;-0.50;89.00
20911;DHT22;10615;42.702;23.314;2024-01-15T05:49:19;-0.40;88.80
20911;DHT22;10615;42.702;23.314;2024-01-15T05:50:19;-0.40;88.70
20911;DHT22;10615;42.702;23.314;2024-01-15T05:51:20;-0.40;88.50
20911;DHT22;10615;42.702;23.314;2024-01-15T05:52:21;-0.40;88.40
20911;DHT22;10615;42.702;23.314;2024-01-15T05:53:22;-0.40;88.40
20911;DHT22;10615;42.702;23.314;2024-01-15T05:54:23;-0.40;88.50
20911;DHT22;10615;42.702;23.314;2024-01-15T05:55:23;-0.40;88.40
20911;DHT22;10615;42.702;23.314;2024-01-15T05:56:24;-0.40;88.40
20911;DHT22;10615;42.702;23.314;2024-01-15T05:57:25;-0.40;88.40
20911;DHT22;10615;42.702;23.314;2024-01-15T05:58:26;-0.50;88.40
20911;DHT22;10615;42.702;23.314;2024-01-15T05:59:26;-0.50;88.40
20911;DHT22;10615;42.702;23.314;2024-01-15T06:00:28;-0.50;88.60
20911;DHT22;10615;42.702;23.314;2024-01-15T06:01:29;-0.50;88.60
20911;DHT22;10615;42.702;23.314;2024-01-15T06:02:30;-0.50;88.60
20911;DHT22;10615;42.702;23.314;2024-01-15T06:03:31;-0.50;88.50
20911;DHT22;10615;42.702;23.314;2024-01-15T06:04:32;-0.50;88.40
20911;DHT22;10615;42.702;23.314;2024-01-15T06:05:32;-0.50;88.30
20911;DHT22;10615;42.702;23.314;2024-01-15T06:06:33;-0.50;88.10
20911;DHT22;10615;42.702;23.314;2024-01-15T06:07:35;-0.60;88.00
20911;DHT22;10615;42.702;23.314;2024-01-15T06:08:37;-0.60;88.10
20911;DHT22;10615;42.702;23.314;2024-01-15T06:09:38;-0.60;88.10
20911;DHT22;10615;42.702;23.314;2024-01-15T06:10:38;-0.60;88.10
20911;DHT22;10615;42.702;23.314;2024-01-15T06:11:39;-0.60;88.20
20911;DHT22;10615;42.702;23.314;2024-01-15T06:12:40;-0.50;88.30
20911;DHT22;10615;42.702;23.314;2024-01-15T06:13:41;-0.50;88.30
20911;DHT22;10615;42.702;23.314;2024-01-15T06:14:42;-0.50;88.20
20911;DHT22;10615;42.702;23.314;2024-01-15T06:15:43;-0.60;88.10
20911;DHT22;10615;42.702;23.314;2024-01-15T06:16:43;-0.50;88.30
20911;DHT22;10615;42.702;23.314;2024-01-15T06:17:44;-0.60;88.30
20911;DHT22;10615;42.702;23.314;2024-01-15T06:18:45;-0.60;88.40